メインページ
METAR-TAF:

METAR-TAF

空港 :

カダラ空港

チタ, ロシア

緯度: 52-05N, 経度: 113-29E, 海抜: 685m

現時点の気象観測

当レポートは24分前の11:00(UTC)に作成
西の風 8kt
気温 -12°C
湿度 51%
気圧 1025 hPa
視程10km以上

METAR: UIAA 141100Z 26004MPS 9999 NSC M12/M20 Q1025 R29/490255 NOSIG RMK QFE710/0946

時間: 20:24 (11:24 UTC)

予報

当レポートは3時間24分前の08:00(UTC)に作成
予報は14日の 09時(UTC)から 15日の 09時(UTC)まで有効
西の風 12kt、最大23ktの突風を伴う
視程10km以上
高度3000ftの雲は散在している, 積乱雲.

TAF: UIAA 140800Z 1409/1509 28006G12MPS 9999 SCT030CB

4,000以上の空港の気象観測と天気予報(METAR報とTAF報)

利用可能な観測所は地図上に黄色い丸と赤い丸で示す。

丸の上にカーソルを重ねると観測所名を参照できる。

次にクリックすると気象観測と天気予報を参照できる。

マップの切り替え:黒色「×」印の緑ボタンをクリックして拡大、「-」印の緑ボタンをクリックして縮小、緑色の三角印をクリックして隣りの地図に切り替え


METAR-TAF: